Time;durP1;ratioP1;P1;durP2;ratioP2;P2;SDS_P1;SDS_P2;PMS_P1;PMS_P2;Temp;Humidity;BMP_temperature;BMP_pressure;BME280_temperature;BME280_humidity;BME280_pressure;Samples;Min_cycle;Max_cycle;Signal;HPM_P1;HPM_P2
2021/01/29 00:00:01;;;;;;;5.37;4.77;;;;;;;;;;5098001;28;20259;-61
2021/01/29 00:02:27;;;;;;;5.17;4.63;;;;;;;;;;5093054;28;20254;-61
2021/01/29 00:04:53;;;;;;;8.53;5.00;;;;;;;;;;5100649;28;20222;-61
2021/01/29 00:07:20;;;;;;;5.60;4.87;;;;;;;;;;5096233;28;20199;-61
2021/01/29 00:09:46;;;;;;;4.97;4.30;;;;;;;;;;5099852;28;20451;-61
2021/01/29 00:12:12;;;;;;;7.17;4.73;;;;;;;;;;5098324;28;20176;-61
2021/01/29 00:14:38;;;;;;;6.50;5.00;;;;;;;;;;5104784;28;20409;-62
2021/01/29 00:17:04;;;;;;;4.87;4.43;;;;;;;;;;5102630;28;20618;-62
2021/01/29 00:19:30;;;;;;;5.40;4.90;;;;;;;;;;5107474;28;20175;-61
2021/01/29 00:21:57;;;;;;;5.30;4.80;;;;;;;;;;5096180;28;20422;-61
2021/01/29 00:24:23;;;;;;;5.37;4.87;;;;;;;;;;5093184;28;20178;-61
2021/01/29 00:26:49;;;;;;;4.87;4.43;;;;;;;;;;5096015;28;20180;-61
2021/01/29 00:29:15;;;;;;;4.97;4.47;;;;;;;;;;5095462;28;20198;-61
2021/01/29 00:31:41;;;;;;;5.40;4.90;;;;;;;;;;5110545;28;20175;-61
2021/01/29 00:34:08;;;;;;;6.53;5.03;;;;;;;;;;5100369;28;20175;-61
2021/01/29 00:36:34;;;;;;;5.10;4.30;;;;;;;;;;5100799;28;20203;-61
2021/01/29 00:39:00;;;;;;;5.33;4.73;;;;;;;;;;5094183;28;20179;-61
2021/01/29 00:41:26;;;;;;;6.93;5.30;;;;;;;;;;5100296;28;20554;-61
2021/01/29 00:43:53;;;;;;;5.40;4.90;;;;;;;;;;5097347;28;20235;-61
2021/01/29 00:46:19;;;;;;;6.90;5.43;;;;;;;;;;5093921;28;20426;-61
2021/01/29 00:48:46;;;;;;;6.20;4.67;;;;;;;;;;5093083;28;20224;-61
2021/01/29 00:51:13;;;;;;;7.57;5.20;;;;;;;;;;5101089;28;20172;-62
2021/01/29 00:53:39;;;;;;;6.00;5.40;;;;;;;;;;5094014;28;20180;-61
2021/01/29 00:56:06;;;;;;;6.37;5.00;;;;;;;;;;5074130;28;20184;-60
2021/01/29 00:58:33;;;;;;;7.20;4.83;;;;;;;;;;5090442;28;20184;-61
2021/01/29 01:01:00;;;;;;;5.83;5.10;;;;;;;;;;5090352;28;20206;-62
2021/01/29 01:03:27;;;;;;;6.80;5.70;;;;;;;;;;5085760;28;20700;-62
2021/01/29 01:05:54;;;;;;;5.90;5.30;;;;;;;;;;5090041;28;20231;-61
2021/01/29 01:08:20;;;;;;;5.03;4.53;;;;;;;;;;5092830;28;20203;-61
2021/01/29 01:10:46;;;;;;;7.93;4.83;;;;;;;;;;5094859;28;20246;-61
2021/01/29 01:13:13;;;;;;;6.13;5.03;;;;;;;;;;5090986;28;20196;-62
2021/01/29 01:15:39;;;;;;;6.40;5.47;;;;;;;;;;5095726;28;20179;-61
2021/01/29 01:18:06;;;;;;;5.33;4.80;;;;;;;;;;5101558;28;20184;-61
2021/01/29 01:20:41;;;;;;;8.10;5.43;;;;;;;;;;5092047;28;20175;-61
2021/01/29 01:23:08;;;;;;;6.57;5.40;;;;;;;;;;5094852;28;20809;-61
2021/01/29 01:25:34;;;;;;;7.00;5.27;;;;;;;;;;5077424;28;20202;-62
2021/01/29 01:28:00;;;;;;;6.17;4.87;;;;;;;;;;5098608;28;20227;-60
2021/01/29 01:30:32;;;;;;;8.10;5.77;;;;;;;;;;5108638;28;20179;-61
2021/01/29 01:32:59;;;;;;;7.63;6.23;;;;;;;;;;5109038;28;20280;-61
2021/01/29 01:35:25;;;;;;;5.80;4.60;;;;;;;;;;5089104;28;20191;-61
2021/01/29 01:37:51;;;;;;;7.03;5.20;;;;;;;;;;5097371;28;20183;-61
2021/01/29 01:40:19;;;;;;;7.23;4.90;;;;;;;;;;5101120;28;20179;-60
2021/01/29 01:42:46;;;;;;;5.83;5.10;;;;;;;;;;5102433;28;20520;-61
2021/01/29 01:45:27;;;;;;;7.80;5.20;;;;;;;;;;5107009;28;20182;-60
2021/01/29 01:48:09;;;;;;;7.43;5.73;;;;;;;;;;5100085;28;20226;-61
2021/01/29 01:50:36;;;;;;;8.37;5.03;;;;;;;;;;5102529;28;20224;-61
2021/01/29 01:53:04;;;;;;;8.23;5.50;;;;;;;;;;5089114;28;20172;-61
2021/01/29 01:55:32;;;;;;;8.97;4.50;;;;;;;;;;5096420;28;20637;-61
2021/01/29 01:57:59;;;;;;;11.50;4.67;;;;;;;;;;5098723;28;20482;-61
2021/01/29 02:00:27;;;;;;;8.27;5.20;;;;;;;;;;5081448;28;20203;-62
2021/01/29 02:02:56;;;;;;;11.27;5.43;;;;;;;;;;5089419;28;20317;-60
2021/01/29 02:05:33;;;;;;;11.53;5.30;;;;;;;;;;5100850;28;20211;-61
2021/01/29 02:08:02;;;;;;;5.70;4.80;;;;;;;;;;5091839;28;20218;-60
2021/01/29 02:10:29;;;;;;;8.10;5.23;;;;;;;;;;5103116;28;20171;-61
2021/01/29 02:12:56;;;;;;;6.37;5.47;;;;;;;;;;5101017;28;20198;-65
2021/01/29 02:15:24;;;;;;;8.90;5.33;;;;;;;;;;5101751;28;20175;-61
2021/01/29 02:18:04;;;;;;;10.53;5.53;;;;;;;;;;5074891;28;20215;-63
2021/01/29 02:20:31;;;;;;;11.07;6.20;;;;;;;;;;5076883;28;20192;-61
2021/01/29 02:23:16;;;;;;;11.97;5.60;;;;;;;;;;5088677;28;20267;-61
2021/01/29 02:26:03;;;;;;;9.27;5.33;;;;;;;;;;5096698;28;20180;-60
2021/01/29 02:28:47;;;;;;;12.20;5.00;;;;;;;;;;5102597;28;20191;-61
2021/01/29 02:31:33;;;;;;;10.37;5.70;;;;;;;;;;5080367;28;20625;-61
2021/01/29 02:34:15;;;;;;;9.30;5.67;;;;;;;;;;5081133;28;20657;-63
2021/01/29 02:37:00;;;;;;;10.63;4.53;;;;;;;;;;5089063;28;20166;-61
2021/01/29 02:39:32;;;;;;;10.33;6.33;;;;;;;;;;5096454;28;20180;-61
2021/01/29 02:42:19;;;;;;;7.73;4.97;;;;;;;;;;5088435;28;20255;-61
2021/01/29 02:44:45;;;;;;;8.83;5.20;;;;;;;;;;5098430;28;20270;-61
2021/01/29 02:47:23;;;;;;;11.77;5.40;;;;;;;;;;5074027;28;20816;-60
2021/01/29 02:49:52;;;;;;;11.13;5.27;;;;;;;;;;5092899;28;20298;-60
2021/01/29 02:52:37;;;;;;;8.03;5.17;;;;;;;;;;5088316;28;20183;-60
2021/01/29 02:55:06;;;;;;;8.67;5.63;;;;;;;;;;5097721;28;20641;-61
2021/01/29 02:57:55;;;;;;;7.47;5.60;;;;;;;;;;5081365;28;20172;-60
2021/01/29 03:00:22;;;;;;;9.47;4.93;;;;;;;;;;5108920;28;20197;-61
2021/01/29 03:02:56;;;;;;;8.07;4.60;;;;;;;;;;5103284;28;20607;-60
2021/01/29 03:05:24;;;;;;;10.63;5.70;;;;;;;;;;5080064;28;20739;-60
2021/01/29 03:07:56;;;;;;;9.47;5.63;;;;;;;;;;5096856;28;20218;-61
2021/01/29 03:10:22;;;;;;;8.17;4.87;;;;;;;;;;5107045;28;20647;-61
2021/01/29 03:12:52;;;;;;;8.80;5.13;;;;;;;;;;5104200;28;20671;-60
2021/01/29 03:15:25;;;;;;;7.80;5.33;;;;;;;;;;5097577;28;20202;-60
2021/01/29 03:17:54;;;;;;;6.43;5.40;;;;;;;;;;5096985;28;20167;-63
2021/01/29 03:20:20;;;;;;;7.33;5.23;;;;;;;;;;5077576;28;20187;-60
2021/01/29 03:22:54;;;;;;;7.40;5.50;;;;;;;;;;5080760;28;20197;-61
2021/01/29 03:25:21;;;;;;;7.37;4.57;;;;;;;;;;5094627;28;20175;-60
2021/01/29 03:27:49;;;;;;;6.30;5.20;;;;;;;;;;5077662;28;20202;-61
2021/01/29 03:30:18;;;;;;;7.47;5.70;;;;;;;;;;5108616;28;20190;-61
2021/01/29 03:32:47;;;;;;;8.50;5.17;;;;;;;;;;5098355;28;20622;-61
2021/01/29 03:35:17;;;;;;;10.17;5.07;;;;;;;;;;5103305;28;20171;-63
2021/01/29 03:37:49;;;;;;;7.80;4.97;;;;;;;;;;5074546;28;20191;-61
2021/01/29 03:40:15;;;;;;;6.13;4.70;;;;;;;;;;5080652;28;20179;-61
2021/01/29 03:42:56;;;;;;;6.70;4.10;;;;;;;;;;5094525;28;20275;-61
2021/01/29 03:45:37;;;;;;;5.40;4.07;;;;;;;;;;5079686;28;20181;-61
2021/01/29 03:48:09;;;;;;;4.50;4.03;;;;;;;;;;5091304;28;20236;-62
2021/01/29 03:50:50;;;;;;;5.30;4.23;;;;;;;;;;5103108;28;20180;-61
2021/01/29 03:53:23;;;;;;;4.53;4.07;;;;;;;;;;5081378;28;20644;-62
2021/01/29 03:55:57;;;;;;;4.13;3.73;;;;;;;;;;5104185;28;20175;-62
2021/01/29 03:58:31;;;;;;;6.37;4.10;;;;;;;;;;5079276;28;20320;-63
2021/01/29 04:01:16;;;;;;;4.33;3.93;;;;;;;;;;5097263;28;20254;-62
2021/01/29 04:03:46;;;;;;;3.60;3.20;;;;;;;;;;5091555;28;20431;-62
2021/01/29 04:06:21;;;;;;;5.60;3.77;;;;;;;;;;5110679;28;20167;-62
2021/01/29 04:08:58;;;;;;;4.37;3.20;;;;;;;;;;5086194;28;20210;-66
2021/01/29 04:11:27;;;;;;;3.93;3.50;;;;;;;;;;5077861;28;20183;-62
2021/01/29 04:13:59;;;;;;;4.20;3.80;;;;;;;;;;5097782;28;20629;-62
2021/01/29 04:16:31;;;;;;;4.07;3.67;;;;;;;;;;5097339;28;20228;-61
2021/01/29 04:19:00;;;;;;;4.93;3.50;;;;;;;;;;5104204;28;20187;-62
2021/01/29 04:21:26;;;;;;;4.30;3.50;;;;;;;;;;5110913;28;20637;-64
2021/01/29 04:24:01;;;;;;;4.50;3.80;;;;;;;;;;5108090;28;20262;-63
2021/01/29 04:26:33;;;;;;;5.40;3.60;;;;;;;;;;5094173;28;20182;-62
2021/01/29 04:29:02;;;;;;;4.63;3.30;;;;;;;;;;5091913;28;20290;-61
2021/01/29 04:31:29;;;;;;;4.40;3.13;;;;;;;;;;5103219;28;20256;-61
2021/01/29 04:34:02;;;;;;;4.70;3.13;;;;;;;;;;5090434;28;20176;-62
2021/01/29 04:36:30;;;;;;;5.03;3.53;;;;;;;;;;5107329;28;20199;-62
2021/01/29 04:39:02;;;;;;;3.87;3.47;;;;;;;;;;5077785;28;20199;-64
2021/01/29 04:41:31;;;;;;;3.77;3.47;;;;;;;;;;5097680;28;20243;-62
2021/01/29 04:44:04;;;;;;;4.17;3.63;;;;;;;;;;5089410;28;20238;-61
2021/01/29 04:46:36;;;;;;;5.63;3.60;;;;;;;;;;5108987;28;20189;-61
2021/01/29 04:49:05;;;;;;;5.50;3.60;;;;;;;;;;5096553;28;20233;-62
2021/01/29 04:51:50;;;;;;;5.27;3.53;;;;;;;;;;5074963;28;20267;-61
2021/01/29 04:54:29;;;;;;;4.13;3.53;;;;;;;;;;5091100;28;20184;-62
2021/01/29 04:56:58;;;;;;;4.60;3.47;;;;;;;;;;5075505;28;20175;-61
2021/01/29 04:59:31;;;;;;;4.10;3.70;;;;;;;;;;5089615;28;20175;-61
2021/01/29 05:01:57;;;;;;;5.10;3.80;;;;;;;;;;5109566;28;20638;-61
2021/01/29 05:04:41;;;;;;;5.07;3.60;;;;;;;;;;5104808;28;20226;-61
2021/01/29 05:07:39;;;;;;;5.57;3.43;;;;;;;;;;5081234;28;20650;-62
2021/01/29 05:10:05;;;;;;;5.33;3.93;;;;;;;;;;5055830;28;20195;-63
2021/01/29 05:12:41;;;;;;;4.00;3.27;;;;;;;;;;5090826;28;20187;-62
2021/01/29 05:15:26;;;;;;;5.07;4.00;;;;;;;;;;5079436;28;20671;-63
2021/01/29 05:18:18;;;;;;;4.33;3.40;;;;;;;;;;5074315;28;20186;-63
2021/01/29 05:21:03;;;;;;;5.77;4.13;;;;;;;;;;5064556;28;20206;-62
2021/01/29 05:23:29;;;;;;;5.37;4.57;;;;;;;;;;5078420;28;20657;-62
2021/01/29 05:25:55;;;;;;;4.90;3.50;;;;;;;;;;5109312;28;20171;-61
2021/01/29 05:28:27;;;;;;;4.03;3.40;;;;;;;;;;5084154;28;20576;-61
2021/01/29 05:31:12;;;;;;;5.47;3.63;;;;;;;;;;5089496;28;20176;-61
2021/01/29 05:33:56;;;;;;;3.70;3.23;;;;;;;;;;5089621;28;20198;-62
2021/01/29 05:36:23;;;;;;;3.90;3.37;;;;;;;;;;5108619;28;20175;-62
2021/01/29 05:38:52;;;;;;;3.83;3.47;;;;;;;;;;5082998;28;20282;-61
2021/01/29 05:41:38;;;;;;;4.40;3.73;;;;;;;;;;5097149;28;20676;-62
2021/01/29 05:44:04;;;;;;;4.10;3.60;;;;;;;;;;5102280;28;20182;-61
2021/01/29 05:46:40;;;;;;;4.33;3.93;;;;;;;;;;5104146;28;20183;-61
2021/01/29 05:49:18;;;;;;;3.70;3.40;;;;;;;;;;5097360;28;20195;-62
2021/01/29 05:51:54;;;;;;;4.07;3.67;;;;;;;;;;5099847;28;20189;-61
2021/01/29 05:54:20;;;;;;;4.33;3.70;;;;;;;;;;5102310;28;20167;-61
2021/01/29 05:57:05;;;;;;;4.73;3.73;;;;;;;;;;5108380;28;20179;-61
2021/01/29 05:59:49;;;;;;;4.20;3.80;;;;;;;;;;5099241;28;20645;-62
2021/01/29 06:02:21;;;;;;;4.43;4.03;;;;;;;;;;5079793;28;20562;-61
2021/01/29 06:05:01;;;;;;;4.47;4.07;;;;;;;;;;5104980;28;20225;-63
2021/01/29 06:07:33;;;;;;;5.20;3.80;;;;;;;;;;5080791;28;20252;-62
2021/01/29 06:10:08;;;;;;;3.87;3.47;;;;;;;;;;5089473;28;20561;-61
2021/01/29 06:12:41;;;;;;;3.93;3.60;;;;;;;;;;5102134;28;20801;-61
2021/01/29 06:15:07;;;;;;;4.67;3.63;;;;;;;;;;5089507;28;20684;-61
2021/01/29 06:17:33;;;;;;;5.07;4.30;;;;;;;;;;5108909;28;20227;-61
2021/01/29 06:20:11;;;;;;;4.73;3.90;;;;;;;;;;5101516;28;20237;-61
2021/01/29 06:22:47;;;;;;;4.97;3.53;;;;;;;;;;5086143;28;20651;-62
2021/01/29 06:25:22;;;;;;;4.53;3.70;;;;;;;;;;5103049;28;20183;-61
2021/01/29 06:27:48;;;;;;;5.63;3.47;;;;;;;;;;5081577;28;20224;-61
2021/01/29 06:30:33;;;;;;;4.50;3.90;;;;;;;;;;5094744;28;20232;-61
2021/01/29 06:33:11;;;;;;;6.80;3.70;;;;;;;;;;5085263;28;20222;-62
2021/01/29 06:35:57;;;;;;;4.60;3.30;;;;;;;;;;5083027;28;20227;-63
2021/01/29 06:38:30;;;;;;;3.87;3.47;;;;;;;;;;5093964;28;20171;-62
2021/01/29 06:41:15;;;;;;;4.40;3.80;;;;;;;;;;5082893;28;20172;-62
2021/01/29 06:43:59;;;;;;;4.20;3.60;;;;;;;;;;5085574;28;20633;-61
2021/01/29 06:46:33;;;;;;;4.23;3.83;;;;;;;;;;5112064;28;20653;-62
2021/01/29 06:49:18;;;;;;;3.90;3.50;;;;;;;;;;5092752;28;20539;-61
2021/01/29 06:51:57;;;;;;;5.10;3.70;;;;;;;;;;5110984;28;20197;-61
2021/01/29 06:54:23;;;;;;;4.50;3.53;;;;;;;;;;5110444;28;20175;-62
2021/01/29 06:57:22;;;;;;;4.57;3.57;;;;;;;;;;5093943;28;20186;-64
2021/01/29 07:00:02;;;;;;;3.53;2.80;;;;;;;;;;5034013;28;20278;-61
2021/01/29 07:02:41;;;;;;;4.53;2.93;;;;;;;;;;5102690;28;20179;-61
2021/01/29 07:05:07;;;;;;;3.33;2.80;;;;;;;;;;5094596;28;20254;-62
2021/01/29 07:08:12;;;;;;;2.97;2.77;;;;;;;;;;5074217;28;20210;-62
2021/01/29 07:10:38;;;;;;;4.20;3.07;;;;;;;;;;4994465;28;20185;-63
2021/01/29 07:13:23;;;;;;;2.93;2.47;;;;;;;;;;5007416;28;20226;-61
2021/01/29 07:16:01;;;;;;;2.80;2.50;;;;;;;;;;5057741;28;20286;-61
2021/01/29 07:18:27;;;;;;;4.13;2.40;;;;;;;;;;5092159;28;20661;-61
2021/01/29 07:21:12;;;;;;;2.30;2.00;;;;;;;;;;5104987;28;20270;-63
2021/01/29 07:23:49;;;;;;;2.70;2.50;;;;;;;;;;5093466;28;20266;-62
2021/01/29 07:26:31;;;;;;;5.17;2.60;;;;;;;;;;5093837;28;20181;-61
2021/01/29 07:29:03;;;;;;;2.43;2.07;;;;;;;;;;5091205;28;20285;-61
2021/01/29 07:31:41;;;;;;;2.80;1.90;;;;;;;;;;5111197;28;20175;-62
2021/01/29 07:34:15;;;;;;;2.20;2.00;;;;;;;;;;5092519;28;20186;-61
2021/01/29 07:36:53;;;;;;;2.27;2.00;;;;;;;;;;5109855;28;20231;-60
2021/01/29 07:39:38;;;;;;;2.97;2.43;;;;;;;;;;5100349;28;20256;-61
2021/01/29 07:42:12;;;;;;;2.80;2.50;;;;;;;;;;5107907;28;20182;-61
2021/01/29 07:44:59;;;;;;;2.83;2.60;;;;;;;;;;5103497;28;20175;-61
2021/01/29 07:47:44;;;;;;;3.70;3.03;;;;;;;;;;5094469;28;20191;-61
2021/01/29 07:50:19;;;;;;;3.20;2.90;;;;;;;;;;5102249;28;20180;-61
2021/01/29 07:52:54;;;;;;;3.70;3.10;;;;;;;;;;5091070;28;20221;-61
2021/01/29 07:55:25;;;;;;;3.80;3.40;;;;;;;;;;5107099;28;20178;-61
2021/01/29 07:58:03;;;;;;;3.80;3.50;;;;;;;;;;5106186;28;20170;-61
2021/01/29 08:00:49;;;;;;;4.23;3.07;;;;;;;;;;5106623;28;20218;-64
2021/01/29 08:03:28;;;;;;;3.47;3.17;;;;;;;;;;5111393;28;20167;-62
2021/01/29 08:06:03;;;;;;;3.70;3.33;;;;;;;;;;5108789;28;20233;-62
2021/01/29 08:08:37;;;;;;;3.97;3.67;;;;;;;;;;5111021;28;20243;-61
2021/01/29 08:11:07;;;;;;;4.33;3.93;;;;;;;;;;5091476;28;20178;-63
2021/01/29 08:13:33;;;;;;;4.27;3.87;;;;;;;;;;5099751;28;20170;-61
2021/01/29 08:15:59;;;;;;;5.33;3.90;;;;;;;;;;5105055;28;20627;-61
2021/01/29 08:18:42;;;;;;;3.83;3.53;;;;;;;;;;5110734;28;20610;-61
2021/01/29 08:21:08;;;;;;;4.10;3.70;;;;;;;;;;5110897;28;20198;-61
2021/01/29 08:23:49;;;;;;;4.33;3.77;;;;;;;;;;5109973;28;20183;-62
2021/01/29 08:26:16;;;;;;;4.67;4.23;;;;;;;;;;5090773;28;20178;-61
2021/01/29 08:28:56;;;;;;;5.03;4.33;;;;;;;;;;5108074;28;20210;-61
2021/01/29 08:31:22;;;;;;;4.30;3.90;;;;;;;;;;5092584;28;20638;-61
2021/01/29 08:33:48;;;;;;;4.70;4.20;;;;;;;;;;5109801;28;20216;-61
2021/01/29 08:36:19;;;;;;;5.17;4.67;;;;;;;;;;5092241;28;20685;-61
2021/01/29 08:38:54;;;;;;;5.60;4.50;;;;;;;;;;5092301;28;20545;-61
2021/01/29 08:41:29;;;;;;;4.67;4.17;;;;;;;;;;5090628;28;20182;-61
2021/01/29 08:44:01;;;;;;;8.40;4.23;;;;;;;;;;5084088;28;20183;-62
2021/01/29 08:46:27;;;;;;;7.50;4.43;;;;;;;;;;5109878;28;20171;-61
2021/01/29 08:49:07;;;;;;;8.80;5.20;;;;;;;;;;5108798;28;20203;-64
2021/01/29 08:51:36;;;;;;;8.50;4.60;;;;;;;;;;5110001;28;20224;-61
2021/01/29 08:54:05;;;;;;;7.17;3.80;;;;;;;;;;5095879;28;20176;-61
2021/01/29 08:56:38;;;;;;;10.57;6.13;;;;;;;;;;5104218;28;20175;-61
2021/01/29 08:59:05;;;;;;;10.67;5.23;;;;;;;;;;5104899;28;20270;-61
2021/01/29 09:01:45;;;;;;;7.30;4.80;;;;;;;;;;5091637;28;20186;-60
2021/01/29 09:04:24;;;;;;;9.07;4.40;;;;;;;;;;5085472;28;20667;-61
2021/01/29 09:06:51;;;;;;;12.00;5.77;;;;;;;;;;5084758;28;20184;-61
2021/01/29 09:09:19;;;;;;;9.07;4.90;;;;;;;;;;5087455;28;20216;-61
2021/01/29 09:11:49;;;;;;;8.77;4.63;;;;;;;;;;5089251;28;20330;-61
2021/01/29 09:14:31;;;;;;;7.37;4.57;;;;;;;;;;5079561;28;20518;-61
2021/01/29 09:17:03;;;;;;;7.13;4.60;;;;;;;;;;5069424;28;20226;-59
2021/01/29 09:19:29;;;;;;;9.77;6.03;;;;;;;;;;5080296;28;20180;-63
2021/01/29 09:22:13;;;;;;;9.30;5.93;;;;;;;;;;5080083;28;20219;-62
2021/01/29 09:24:56;;;;;;;9.90;5.37;;;;;;;;;;5083096;28;20179;-61
2021/01/29 09:27:34;;;;;;;10.80;5.47;;;;;;;;;;5086906;28;20175;-60
2021/01/29 09:30:02;;;;;;;10.53;5.43;;;;;;;;;;5079934;28;20848;-61
2021/01/29 09:32:43;;;;;;;8.40;4.83;;;;;;;;;;5089255;28;20171;-60
2021/01/29 09:35:16;;;;;;;9.80;4.87;;;;;;;;;;5079990;28;20290;-61
2021/01/29 09:37:48;;;;;;;9.07;4.93;;;;;;;;;;5086523;28;20178;-61
2021/01/29 09:40:19;;;;;;;21.23;6.10;;;;;;;;;;5088873;28;20190;-62
2021/01/29 09:42:47;;;;;;;9.40;5.83;;;;;;;;;;5080390;28;20168;-61
2021/01/29 09:45:25;;;;;;;15.90;6.60;;;;;;;;;;5088585;28;20262;-61
2021/01/29 09:47:57;;;;;;;11.17;5.87;;;;;;;;;;5070422;28;20302;-61
2021/01/29 09:50:24;;;;;;;14.13;6.00;;;;;;;;;;5063747;28;20187;-61
2021/01/29 09:52:59;;;;;;;12.60;5.50;;;;;;;;;;5068918;28;20187;-61
2021/01/29 09:55:32;;;;;;;14.70;6.17;;;;;;;;;;5069247;28;20152;-61
2021/01/29 09:58:17;;;;;;;14.20;5.70;;;;;;;;;;5060253;28;20184;-62
2021/01/29 10:04:05;;;;;;;10.77;5.70;;;;;;;;;;5089254;28;20213;-61
2021/01/29 10:12:41;;;;;;;10.40;5.00;;;;;;;;;;5099076;28;20190;-61
2021/01/29 10:15:18;;;;;;;16.97;6.93;;;;;;;;;;5103562;28;20175;-61
2021/01/29 10:17:58;;;;;;;16.23;5.40;;;;;;;;;;5108174;27;20195;-61
2021/01/29 10:20:28;;;;;;;12.00;5.83;;;;;;;;;;5105844;28;20175;-61
2021/01/29 10:23:04;;;;;;;16.03;6.23;;;;;;;;;;5108899;28;20183;-61
2021/01/29 10:25:30;;;;;;;13.77;6.27;;;;;;;;;;5111003;28;20548;-62
2021/01/29 10:28:12;;;;;;;14.03;6.10;;;;;;;;;;5110725;28;20767;-62
2021/01/29 10:30:46;;;;;;;16.87;7.43;;;;;;;;;;5070413;28;20687;-61
2021/01/29 10:33:18;;;;;;;13.20;6.10;;;;;;;;;;5101538;28;20864;-61
2021/01/29 10:36:05;;;;;;;13.80;5.37;;;;;;;;;;5092798;28;20176;-61
2021/01/29 10:38:44;;;;;;;17.43;5.73;;;;;;;;;;5110479;28;20179;-61
2021/01/29 10:41:10;;;;;;;13.07;5.30;;;;;;;;;;5113694;28;20270;-61
2021/01/29 10:43:53;;;;;;;18.37;6.70;;;;;;;;;;5112960;28;20174;-61
2021/01/29 10:46:23;;;;;;;14.13;6.40;;;;;;;;;;5084968;28;20201;-61
2021/01/29 10:48:53;;;;;;;12.57;5.87;;;;;;;;;;5111917;28;20313;-61
2021/01/29 10:51:20;;;;;;;16.10;6.00;;;;;;;;;;5110369;28;20224;-61
2021/01/29 10:53:46;;;;;;;12.40;5.77;;;;;;;;;;5087152;28;20176;-61
2021/01/29 10:56:19;;;;;;;10.27;6.07;;;;;;;;;;5092873;28;20621;-61
2021/01/29 10:58:57;;;;;;;15.20;5.57;;;;;;;;;;5083239;28;20812;-61
2021/01/29 11:01:37;;;;;;;13.77;6.73;;;;;;;;;;5091938;28;20178;-60
2021/01/29 11:04:19;;;;;;;15.73;5.87;;;;;;;;;;5075536;28;20270;-60
2021/01/29 11:06:47;;;;;;;14.50;5.33;;;;;;;;;;5092756;28;20200;-61
2021/01/29 11:09:19;;;;;;;15.73;6.50;;;;;;;;;;5092169;28;20204;-61
2021/01/29 11:11:53;;;;;;;16.03;5.53;;;;;;;;;;5111706;28;20613;-62
2021/01/29 11:14:20;;;;;;;15.10;6.73;;;;;;;;;;5093184;28;20174;-61
2021/01/29 11:16:50;;;;;;;12.40;6.03;;;;;;;;;;5094549;28;20183;-61
2021/01/29 11:19:21;;;;;;;19.87;6.33;;;;;;;;;;5095429;28;20178;-62
2021/01/29 11:21:51;;;;;;;15.57;6.50;;;;;;;;;;5102174;28;20297;-61
2021/01/29 11:24:22;;;;;;;13.40;5.47;;;;;;;;;;5094302;28;20614;-61
2021/01/29 11:26:48;;;;;;;14.23;5.70;;;;;;;;;;5113202;28;20152;-60
2021/01/29 11:29:18;;;;;;;12.13;6.57;;;;;;;;;;5110378;28;20203;-61
2021/01/29 11:32:02;;;;;;;16.07;6.00;;;;;;;;;;5101529;28;20563;-60
2021/01/29 11:34:30;;;;;;;10.87;5.17;;;;;;;;;;5092302;28;20191;-60
2021/01/29 11:37:16;;;;;;;15.37;6.00;;;;;;;;;;5066455;28;20180;-61
2021/01/29 11:39:45;;;;;;;19.90;6.37;;;;;;;;;;5071327;28;20180;-61
2021/01/29 11:42:16;;;;;;;16.27;6.10;;;;;;;;;;5094188;28;20175;-61
2021/01/29 11:44:49;;;;;;;11.60;6.30;;;;;;;;;;5087258;28;20171;-60
2021/01/29 11:47:18;;;;;;;10.50;5.67;;;;;;;;;;5091105;28;20606;-60
2021/01/29 11:49:55;;;;;;;14.67;5.60;;;;;;;;;;5106035;28;20735;-63
2021/01/29 11:52:29;;;;;;;13.10;5.43;;;;;;;;;;5111940;28;20661;-62
2021/01/29 11:55:10;;;;;;;13.90;5.83;;;;;;;;;;5111266;28;20169;-64
2021/01/29 11:57:40;;;;;;;17.33;5.77;;;;;;;;;;5091022;28;20182;-61
2021/01/29 12:00:32;;;;;;;12.03;5.90;;;;;;;;;;5107713;28;20672;-60
2021/01/29 12:03:13;;;;;;;13.00;6.43;;;;;;;;;;5055653;28;20233;-60
2021/01/29 12:05:53;;;;;;;14.67;5.83;;;;;;;;;;5068416;28;20226;-61
2021/01/29 12:08:43;;;;;;;12.83;5.23;;;;;;;;;;5082853;28;20223;-61
2021/01/29 12:11:22;;;;;;;13.73;6.03;;;;;;;;;;5077262;28;20207;-60
2021/01/29 12:13:48;;;;;;;10.87;5.10;;;;;;;;;;5089422;28;20176;-60
2021/01/29 12:16:25;;;;;;;10.87;6.17;;;;;;;;;;5088998;28;20255;-60
2021/01/29 12:18:53;;;;;;;14.37;5.43;;;;;;;;;;5088408;28;20235;-62
2021/01/29 12:21:39;;;;;;;11.77;5.07;;;;;;;;;;5073065;28;20180;-60
2021/01/29 12:24:09;;;;;;;12.27;6.03;;;;;;;;;;5090515;28;20251;-60
2021/01/29 12:26:54;;;;;;;12.00;5.23;;;;;;;;;;5074823;28;20172;-61
2021/01/29 12:29:38;;;;;;;9.93;6.00;;;;;;;;;;5070091;28;20192;-60
2021/01/29 12:32:04;;;;;;;11.47;5.00;;;;;;;;;;5062362;28;20631;-60
2021/01/29 12:34:32;;;;;;;15.57;4.90;;;;;;;;;;5070291;28;20662;-61
2021/01/29 12:37:01;;;;;;;19.23;7.20;;;;;;;;;;5078100;28;20176;-60
2021/01/29 12:39:34;;;;;;;17.30;5.77;;;;;;;;;;5090412;28;20176;-60
2021/01/29 12:42:07;;;;;;;11.40;6.37;;;;;;;;;;5087489;28;20215;-61
2021/01/29 12:44:40;;;;;;;14.17;6.00;;;;;;;;;;5070425;28;20171;-61
2021/01/29 12:47:06;;;;;;;14.07;6.23;;;;;;;;;;5077694;28;20290;-63
2021/01/29 12:49:42;;;;;;;8.47;5.13;;;;;;;;;;5070735;28;20200;-60
2021/01/29 12:52:21;;;;;;;14.13;5.97;;;;;;;;;;5083363;28;20190;-60
2021/01/29 12:55:04;;;;;;;14.93;5.70;;;;;;;;;;5069447;28;20188;-60
2021/01/29 12:57:31;;;;;;;10.87;5.43;;;;;;;;;;5079366;28;20638;-61
2021/01/29 13:00:05;;;;;;;11.13;5.23;;;;;;;;;;5075171;28;20187;-62
2021/01/29 13:02:57;;;;;;;10.53;4.87;;;;;;;;;;5072329;28;20233;-61
2021/01/29 13:05:35;;;;;;;13.20;5.60;;;;;;;;;;5042594;28;20306;-61
2021/01/29 13:08:08;;;;;;;8.37;4.57;;;;;;;;;;5068676;28;20214;-61
2021/01/29 13:11:01;;;;;;;14.30;6.03;;;;;;;;;;5079553;28;20580;-60
2021/01/29 13:13:46;;;;;;;11.33;5.10;;;;;;;;;;5065838;28;20193;-62
2021/01/29 13:16:21;;;;;;;10.10;5.07;;;;;;;;;;5051195;28;20642;-61
2021/01/29 13:18:51;;;;;;;10.90;4.93;;;;;;;;;;5078198;28;20290;-61
2021/01/29 13:21:20;;;;;;;18.07;5.60;;;;;;;;;;5072908;28;20180;-63
2021/01/29 13:23:47;;;;;;;15.67;5.00;;;;;;;;;;5084140;28;20216;-60
2021/01/29 13:26:29;;;;;;;15.23;5.33;;;;;;;;;;5076758;28;20179;-61
2021/01/29 13:28:58;;;;;;;10.77;4.40;;;;;;;;;;5061189;28;20342;-60
2021/01/29 13:31:43;;;;;;;12.40;5.00;;;;;;;;;;5086539;28;20345;-60
2021/01/29 13:34:23;;;;;;;12.53;4.43;;;;;;;;;;5076966;28;20172;-60
2021/01/29 13:36:58;;;;;;;10.03;4.20;;;;;;;;;;5085061;28;20214;-60
2021/01/29 13:39:26;;;;;;;15.30;4.33;;;;;;;;;;5083916;28;20520;-60
2021/01/29 13:41:54;;;;;;;13.27;4.83;;;;;;;;;;5079672;28;20180;-61
2021/01/29 13:44:25;;;;;;;13.47;3.90;;;;;;;;;;5089054;28;20576;-60
2021/01/29 13:46:52;;;;;;;12.63;4.10;;;;;;;;;;5089126;28;20699;-60
2021/01/29 13:49:30;;;;;;;9.33;3.53;;;;;;;;;;5085537;28;20207;-61
2021/01/29 13:51:57;;;;;;;6.73;2.70;;;;;;;;;;5068785;28;20527;-61
2021/01/29 13:54:34;;;;;;;6.87;2.80;;;;;;;;;;5069525;28;20562;-60
2021/01/29 13:57:19;;;;;;;6.90;2.93;;;;;;;;;;5076740;28;20192;-60
2021/01/29 13:59:51;;;;;;;6.13;2.90;;;;;;;;;;5068361;28;20179;-61
2021/01/29 14:02:17;;;;;;;6.20;2.50;;;;;;;;;;5088494;28;20176;-61
2021/01/29 14:04:46;;;;;;;6.83;3.53;;;;;;;;;;5087185;28;20233;-60
2021/01/29 14:07:12;;;;;;;4.70;2.57;;;;;;;;;;5081096;28;20610;-61
2021/01/29 14:09:38;;;;;;;7.73;3.00;;;;;;;;;;5104978;28;20710;-60
2021/01/29 14:12:07;;;;;;;6.33;2.63;;;;;;;;;;5107781;28;20186;-61
2021/01/29 14:14:49;;;;;;;10.17;3.20;;;;;;;;;;5088680;28;20175;-61
2021/01/29 14:17:24;;;;;;;6.30;2.60;;;;;;;;;;5089632;28;20163;-60
2021/01/29 14:20:02;;;;;;;7.00;2.70;;;;;;;;;;5090524;28;20178;-60
2021/01/29 14:22:33;;;;;;;7.80;2.60;;;;;;;;;;5100247;28;20218;-60
2021/01/29 14:25:18;;;;;;;9.70;3.53;;;;;;;;;;5102712;28;20267;-60
2021/01/29 14:27:44;;;;;;;12.27;3.37;;;;;;;;;;5101289;28;20179;-61
2021/01/29 14:30:11;;;;;;;9.63;3.20;;;;;;;;;;5102338;28;20187;-59
2021/01/29 14:32:55;;;;;;;7.77;2.93;;;;;;;;;;5097362;28;20183;-61
2021/01/29 14:35:32;;;;;;;7.90;3.30;;;;;;;;;;5086545;28;20277;-60
2021/01/29 14:38:14;;;;;;;7.93;2.57;;;;;;;;;;5083270;28;20191;-60
2021/01/29 14:40:40;;;;;;;6.97;3.30;;;;;;;;;;5071188;28;20183;-60
2021/01/29 14:43:13;;;;;;;7.53;3.10;;;;;;;;;;5096578;28;20210;-60
2021/01/29 14:45:39;;;;;;;4.97;2.57;;;;;;;;;;5096013;28;20176;-60
2021/01/29 14:48:05;;;;;;;7.03;2.73;;;;;;;;;;5085002;28;20199;-60
2021/01/29 14:50:37;;;;;;;5.83;2.83;;;;;;;;;;5098101;28;20184;-60
2021/01/29 14:53:14;;;;;;;4.47;2.90;;;;;;;;;;5098547;28;20201;-61
2021/01/29 14:55:47;;;;;;;6.90;2.40;;;;;;;;;;5092329;28;20171;-60
2021/01/29 14:58:16;;;;;;;9.83;2.97;;;;;;;;;;5088250;28;20179;-60
2021/01/29 15:00:46;;;;;;;6.13;2.77;;;;;;;;;;5088532;28;20219;-61
2021/01/29 15:03:26;;;;;;;12.13;3.17;;;;;;;;;;5109878;28;20194;-60
2021/01/29 15:05:53;;;;;;;5.07;2.40;;;;;;;;;;5106695;28;20574;-60
2021/01/29 15:08:25;;;;;;;7.80;2.40;;;;;;;;;;5097210;28;20213;-60
2021/01/29 15:10:59;;;;;;;12.67;3.30;;;;;;;;;;5102662;28;20186;-60
2021/01/29 15:13:40;;;;;;;7.10;2.97;;;;;;;;;;5112145;28;20192;-60
2021/01/29 15:16:07;;;;;;;6.23;2.50;;;;;;;;;;5112586;28;20171;-60
2021/01/29 15:18:42;;;;;;;4.93;2.10;;;;;;;;;;5110904;28;20183;-61
2021/01/29 15:21:34;;;;;;;9.13;3.70;;;;;;;;;;5103410;28;20194;-61
2021/01/29 15:24:01;;;;;;;6.90;2.40;;;;;;;;;;5097672;28;20419;-60